Аэропорт: Сокол. Магадан

ICAO: UHMM

METAR:
2019-12-12 10:00:00
UHMM 121000Z 05001MPS 9999 NSC M33/M36 Q1004 R10/82//50 NOSIG RMK QFE738
METAR:
2019-12-12 07:50:00
TAF UHMM 120750Z 1209/1315 10003MPS 9999 NSC